TimePDT,TemperatureF,Dew PointF,Humidity,Sea Level PressureIn,VisibilityMPH,Wind Direction,Wind SpeedMPH,Gust SpeedMPH,PrecipitationIn,Events,Conditions,WindDirDegrees,DateUTC
12:56 AM,66.9,37.0,33,30.41,10.0,Calm,Calm,-,N/A,,Unknown,0,2013-08-22 07:56:00
1:56 AM,64.0,37.0,37,30.41,10.0,WNW,5.8,-,N/A,,Unknown,300,2013-08-22 08:56:00
2:56 AM,64.0,37.0,37,30.41,10.0,NNW,8.1,-,N/A,,Unknown,340,2013-08-22 09:56:00
3:56 AM,61.0,37.9,42,30.42,10.0,NW,9.2,-,N/A,,Unknown,320,2013-08-22 10:56:00
4:56 AM,61.0,39.0,44,30.42,10.0,NW,8.1,-,N/A,,Unknown,320,2013-08-22 11:56:00
5:56 AM,59.0,39.0,48,30.43,10.0,Variable,4.6,-,N/A,,Unknown,0,2013-08-22 12:56:00
6:56 AM,62.1,41.0,46,30.43,10.0,NNW,4.6,-,N/A,,Unknown,330,2013-08-22 13:56:00
8:56 AM,72.0,45.0,38,30.45,10.0,ENE,4.6,-,N/A,,Unknown,70,2013-08-22 15:56:00
9:56 AM,77.0,41.0,28,30.43,10.0,Calm,Calm,-,N/A,,Unknown,0,2013-08-22 16:56:00
10:56 AM,82.0,37.9,21,30.43,10.0,SSE,11.5,18.4,N/A,,Unknown,160,2013-08-22 17:56:00
11:56 AM,84.9,37.9,19,30.40,10.0,South,15.0,20.7,N/A,,Unknown,190,2013-08-22 18:56:00
12:56 PM,84.0,37.0,19,30.39,10.0,South,19.6,28.8,N/A,,Unknown,170,2013-08-22 19:56:00
2:56 PM,84.9,37.9,19,30.36,10.0,SSW,20.7,28.8,N/A,,Unknown,200,2013-08-22 21:56:00
3:56 PM,84.0,37.0,19,30.34,10.0,SSW,18.4,32.2,N/A,,Unknown,200,2013-08-22 22:56:00
4:56 PM,84.9,36.0,17,30.33,10.0,SSW,23.0,31.1,N/A,,Unknown,210,2013-08-22 23:56:00
5:56 PM,82.0,37.9,21,30.32,10.0,South,16.1,-,N/A,,Unknown,190,2013-08-23 00:56:00
6:56 PM,81.0,37.9,21,30.33,10.0,South,17.3,24.2,N/A,,Unknown,190,2013-08-23 01:56:00
7:56 PM,78.1,35.1,21,30.34,10.0,SSW,9.2,-,N/A,,Unknown,210,2013-08-23 02:56:00
9:56 PM,72.0,37.0,28,30.36,10.0,South,5.8,-,N/A,,Unknown,180,2013-08-23 04:56:00
10:56 PM,68.0,39.0,35,30.36,10.0,SW,6.9,-,N/A,,Unknown,220,2013-08-23 05:56:00
11:56 PM,70.0,39.9,33,30.36,10.0,SSW,10.4,-,N/A,,Unknown,200,2013-08-23 06:56:00